Weather at CX Ranch Airport

Public forecast

Using degrees Fahrenheit for public forecast. Weather courtesy of forecast.io.

Closest aviation weather report (METAR) to CX Ranch Airport

Closest report is Sandpoint Airport, 17.4 nm (32.3 km) NW. Retrieved 2021/07/24 22:35 UTC (3 minutes ago):

KSZT 242235Z AUTO 12008KT 10SM CLR 30/05 A3004 RMK AO2

Closest aviation forecast (TAF) to CX Ranch Airport

Closest forecast is Coeur D'Alene - Pappy Boyington Field, 33.2 nm (61.5 km) SW. Retrieved 2021/07/24 18:57 UTC (4 hours ago):

TAF KCOE 241755Z 2418/2518 09003KT P6SM SKC FM242100 23006KT P6SM SKC FM250200 15005KT P6SM SKC FM251745 20006KT P6SM SKC